Time;durP1;ratioP1;P1;durP2;ratioP2;P2;SDS_P1;SDS_P2;PMS_P1;PMS_P2;Temp;Humidity;BMP_temperature;BMP_pressure;BME280_temperature;BME280_humidity;BME280_pressure;Samples;Min_cycle;Max_cycle;Signal;HPM_P1;HPM_P2
2023/01/24 00:00:03;;;;;;;;;;;4.00;99.90;;;;;;8399178;28;19987;-74
2023/01/24 00:04:05;;;;;;;;;;;3.90;99.90;;;;;;8382635;28;20011;-73
2023/01/24 00:08:07;;;;;;;;;;;4.00;99.90;;;;;;8403407;28;20392;-74
2023/01/24 00:12:09;;;;;;;;;;;3.90;99.90;;;;;;8402774;28;19974;-73
2023/01/24 00:16:15;;;;;;;;;;;3.90;99.90;;;;;;8375059;28;19948;-74
2023/01/24 00:20:17;;;;;;;;;;;3.90;99.90;;;;;;8368399;28;19928;-74
2023/01/24 00:24:19;;;;;;;;;;;3.90;99.90;;;;;;8382007;28;19935;-74
2023/01/24 00:28:20;;;;;;;;;;;3.90;99.90;;;;;;8393117;28;19928;-74
2023/01/24 00:32:25;;;;;;;;;;;3.80;99.90;;;;;;8395267;28;19924;-74
2023/01/24 00:36:26;;;;;;;;;;;3.80;99.90;;;;;;8378905;28;19934;-74
2023/01/24 00:40:28;;;;;;;;;;;3.90;99.90;;;;;;8405623;28;20016;-74
2023/01/24 00:44:30;;;;;;;;;;;3.90;99.90;;;;;;8397527;28;20015;-74
2023/01/24 00:48:31;;;;;;;;;;;3.80;99.90;;;;;;8402850;28;19958;-74
2023/01/24 00:52:33;;;;;;;;;;;3.80;99.90;;;;;;8385763;28;20063;-73
2023/01/24 00:56:35;;;;;;;;;;;3.80;99.90;;;;;;8383588;28;19928;-74
2023/01/24 01:00:38;;;;;;;;;;;3.80;99.90;;;;;;8398528;28;19963;-74
2023/01/24 01:04:40;;;;;;;;;;;3.80;99.90;;;;;;8391871;28;19955;-74
2023/01/24 01:08:42;;;;;;;;;;;3.80;99.90;;;;;;8385376;28;20276;-74
2023/01/24 01:12:44;;;;;;;;;;;3.80;99.90;;;;;;8405551;28;19929;-74
2023/01/24 01:16:45;;;;;;;;;;;3.80;99.90;;;;;;8394825;28;19924;-74
2023/01/24 01:20:53;;;;;;;;;;;3.80;99.90;;;;;;8368030;28;20292;-74
2023/01/24 01:24:55;;;;;;;;;;;3.80;99.90;;;;;;8404026;28;20303;-74
2023/01/24 01:28:57;;;;;;;;;;;3.80;99.90;;;;;;8375078;28;19963;-74
2023/01/24 01:32:58;;;;;;;;;;;3.80;99.90;;;;;;8373298;28;19934;-74
2023/01/24 01:37:00;;;;;;;;;;;3.80;99.90;;;;;;8382483;28;19970;-73
2023/01/24 01:41:01;;;;;;;;;;;3.80;99.90;;;;;;8397278;28;19957;-74
2023/01/24 01:45:22;;;;;;;;;;;3.80;99.90;;;;;;8408197;28;19932;-74
2023/01/24 01:49:25;;;;;;;;;;;3.80;99.90;;;;;;8399056;28;19928;-74
2023/01/24 01:53:30;;;;;;;;;;;3.70;99.90;;;;;;8396924;28;19977;-74
2023/01/24 01:57:31;;;;;;;;;;;3.70;99.90;;;;;;8390542;28;19924;-74
2023/01/24 02:01:33;;;;;;;;;;;3.70;99.90;;;;;;8389139;28;19928;-74
2023/01/24 02:05:35;;;;;;;;;;;3.70;99.90;;;;;;8386332;28;19960;-74
2023/01/24 02:09:41;;;;;;;;;;;3.70;99.90;;;;;;8381350;28;19931;-74
2023/01/24 02:13:43;;;;;;;;;;;3.70;99.90;;;;;;8368262;28;20360;-74
2023/01/24 02:17:45;;;;;;;;;;;3.70;99.90;;;;;;8392003;28;20288;-74
2023/01/24 02:21:51;;;;;;;;;;;3.70;99.90;;;;;;8415305;28;19999;-73
2023/01/24 02:25:59;;;;;;;;;;;3.70;99.90;;;;;;8380595;28;19931;-74
2023/01/24 02:30:00;;;;;;;;;;;3.70;99.90;;;;;;8395648;28;19929;-74
2023/01/24 02:34:02;;;;;;;;;;;3.70;99.90;;;;;;8396042;28;19932;-74
2023/01/24 02:38:05;;;;;;;;;;;3.70;99.90;;;;;;8396848;28;20365;-74
2023/01/24 02:42:09;;;;;;;;;;;3.70;99.90;;;;;;8388101;28;20449;-74
2023/01/24 02:46:10;;;;;;;;;;;3.60;99.90;;;;;;8387543;28;19924;-74
2023/01/24 02:50:12;;;;;;;;;;;3.60;99.90;;;;;;8386175;28;19924;-74
2023/01/24 02:54:14;;;;;;;;;;;3.70;99.90;;;;;;8383276;28;20376;-73
2023/01/24 02:58:15;;;;;;;;;;;3.70;99.90;;;;;;8400875;28;20016;-74
2023/01/24 03:02:17;;;;;;;;;;;3.70;99.90;;;;;;8394492;28;19974;-74
2023/01/24 03:06:19;;;;;;;;;;;3.70;99.90;;;;;;8388388;28;19959;-74
2023/01/24 03:10:20;;;;;;;;;;;3.70;99.90;;;;;;8398664;28;19936;-74
2023/01/24 03:36:06;;;;;;;;;;;3.50;99.90;;;;;;8390640;28;19928;-74
2023/01/24 03:40:12;;;;;;;;;;;3.50;99.90;;;;;;8394401;28;20348;-74
2023/01/24 03:44:14;;;;;;;;;;;3.50;99.90;;;;;;8401963;28;19924;-73
2023/01/24 03:48:25;;;;;;;;;;;3.60;99.90;;;;;;8405612;28;19928;-73
2023/01/24 04:02:47;;;;;;;;;;;3.60;99.90;;;;;;8400778;28;19920;-74
2023/01/24 04:06:48;;;;;;;;;;;3.60;99.90;;;;;;8416507;28;19924;-74
2023/01/24 04:10:50;;;;;;;;;;;3.60;99.90;;;;;;8406086;28;20497;-74
2023/01/24 04:14:52;;;;;;;;;;;3.50;99.90;;;;;;8401924;28;19924;-74
2023/01/24 04:18:53;;;;;;;;;;;3.50;99.90;;;;;;8382955;28;20384;-73
2023/01/24 04:22:55;;;;;;;;;;;3.50;99.90;;;;;;8399252;28;19924;-74
2023/01/24 04:26:57;;;;;;;;;;;3.50;99.90;;;;;;8407531;28;19963;-74
2023/01/24 04:30:59;;;;;;;;;;;3.50;99.90;;;;;;8416218;28;19968;-74
2023/01/24 04:35:03;;;;;;;;;;;3.50;99.90;;;;;;8371081;28;19990;-73
2023/01/24 04:39:04;;;;;;;;;;;3.50;99.90;;;;;;8392323;28;19967;-74
2023/01/24 04:43:06;;;;;;;;;;;3.50;99.90;;;;;;8381261;28;20296;-74
2023/01/24 04:47:08;;;;;;;;;;;3.40;99.90;;;;;;8384165;28;20404;-74
2023/01/24 04:51:09;;;;;;;;;;;3.40;99.90;;;;;;8409914;28;19924;-74
2023/01/24 04:55:11;;;;;;;;;;;3.40;99.90;;;;;;8390457;28;19932;-73
2023/01/24 04:59:13;;;;;;;;;;;3.40;99.90;;;;;;8403033;28;19929;-74
2023/01/24 05:03:14;;;;;;;;;;;3.30;99.90;;;;;;8387977;28;19925;-74
2023/01/24 05:07:16;;;;;;;;;;;3.30;99.90;;;;;;8378593;28;19968;-74
2023/01/24 05:11:18;;;;;;;;;;;3.30;99.90;;;;;;8380619;28;20413;-74
2023/01/24 05:15:21;;;;;;;;;;;3.30;99.90;;;;;;8396306;28;20347;-74
2023/01/24 05:24:26;;;;;;;;;;;3.30;99.90;;;;;;8404318;28;19919;-74
2023/01/24 05:28:28;;;;;;;;;;;3.30;99.90;;;;;;8383729;28;20003;-74
2023/01/24 05:32:30;;;;;;;;;;;3.30;99.90;;;;;;8388951;28;19963;-74
2023/01/24 05:36:32;;;;;;;;;;;3.30;99.90;;;;;;8397278;28;19931;-74
2023/01/24 05:40:33;;;;;;;;;;;3.30;99.90;;;;;;8385182;28;19931;-74
2023/01/24 05:44:35;;;;;;;;;;;3.30;99.90;;;;;;8399249;28;19971;-74
2023/01/24 05:48:37;;;;;;;;;;;3.30;99.90;;;;;;8384164;28;19959;-74
2023/01/24 05:52:38;;;;;;;;;;;3.30;99.90;;;;;;8393488;28;19929;-74
2023/01/24 05:56:40;;;;;;;;;;;3.30;99.90;;;;;;8385613;28;19960;-74
2023/01/24 06:00:41;;;;;;;;;;;3.20;99.90;;;;;;8396095;28;20407;-74
2023/01/24 06:04:43;;;;;;;;;;;3.20;99.90;;;;;;8372393;28;19930;-74
2023/01/24 06:08:45;;;;;;;;;;;3.20;99.90;;;;;;8389272;28;20059;-74
2023/01/24 06:17:49;;;;;;;;;;;3.20;99.90;;;;;;8401436;28;19924;-74
2023/01/24 06:37:19;;;;;;;;;;;3.20;99.90;;;;;;8410768;28;19923;-74
2023/01/24 06:41:21;;;;;;;;;;;3.20;99.90;;;;;;8390801;28;19971;-74
2023/01/24 06:45:22;;;;;;;;;;;3.20;99.90;;;;;;8386608;28;19959;-74
2023/01/24 06:49:24;;;;;;;;;;;3.10;99.90;;;;;;8391273;28;19983;-74
2023/01/24 06:53:26;;;;;;;;;;;3.10;99.90;;;;;;8413764;28;19970;-73
2023/01/24 06:57:28;;;;;;;;;;;3.00;99.90;;;;;;8407441;28;20015;-74
2023/01/24 07:01:29;;;;;;;;;;;3.00;99.90;;;;;;8397182;28;20194;-74
2023/01/24 07:05:31;;;;;;;;;;;3.00;99.90;;;;;;8387179;28;19966;-74
2023/01/24 07:09:33;;;;;;;;;;;3.00;99.90;;;;;;8378952;28;20248;-74
2023/01/24 07:13:35;;;;;;;;;;;3.10;99.90;;;;;;8385860;28;20001;-74
2023/01/24 07:17:37;;;;;;;;;;;3.00;99.90;;;;;;8411153;28;20280;-74
2023/01/24 07:21:39;;;;;;;;;;;3.10;99.90;;;;;;8393078;28;20023;-73
2023/01/24 07:25:42;;;;;;;;;;;3.00;99.90;;;;;;8416269;28;20388;-74
2023/01/24 07:29:44;;;;;;;;;;;3.00;99.90;;;;;;8424672;28;19995;-73
2023/01/24 07:33:46;;;;;;;;;;;3.00;99.90;;;;;;8416305;28;19924;-74
2023/01/24 07:37:48;;;;;;;;;;;3.00;99.90;;;;;;8407855;28;20371;-73
2023/01/24 07:41:50;;;;;;;;;;;3.00;99.90;;;;;;8406318;28;19978;-74
2023/01/24 07:45:52;;;;;;;;;;;3.00;99.90;;;;;;8394356;28;19932;-74
2023/01/24 07:49:53;;;;;;;;;;;3.00;99.90;;;;;;8385896;28;20376;-74
2023/01/24 07:53:55;;;;;;;;;;;3.00;99.90;;;;;;8399048;28;19928;-74
2023/01/24 07:57:57;;;;;;;;;;;3.00;99.90;;;;;;8422679;28;20001;-73
2023/01/24 08:01:59;;;;;;;;;;;3.00;99.90;;;;;;8404902;28;19928;-74
2023/01/24 08:06:03;;;;;;;;;;;3.00;99.90;;;;;;8389529;28;20217;-74
2023/01/24 08:25:15;;;;;;;;;;;3.00;99.90;;;;;;8411206;28;19923;-74
2023/01/24 08:29:16;;;;;;;;;;;3.00;99.90;;;;;;8395653;28;20379;-74
2023/01/24 08:33:18;;;;;;;;;;;3.00;99.90;;;;;;8405187;28;19929;-74
2023/01/24 08:37:20;;;;;;;;;;;3.00;99.90;;;;;;8396980;28;19928;-74
2023/01/24 08:41:22;;;;;;;;;;;3.00;99.90;;;;;;8415922;28;19931;-74
2023/01/24 08:45:23;;;;;;;;;;;3.10;99.90;;;;;;8411444;28;20341;-74
2023/01/24 08:49:26;;;;;;;;;;;3.10;99.90;;;;;;8411329;28;20384;-74
2023/01/24 08:53:28;;;;;;;;;;;3.10;99.90;;;;;;8385496;28;19979;-74
2023/01/24 08:57:29;;;;;;;;;;;3.10;99.90;;;;;;8403230;28;20011;-74
2023/01/24 09:01:33;;;;;;;;;;;3.00;99.90;;;;;;8409808;28;20018;-73
2023/01/24 09:05:36;;;;;;;;;;;3.00;99.90;;;;;;8408408;28;19925;-74
2023/01/24 09:09:38;;;;;;;;;;;3.10;99.90;;;;;;8403483;28;19976;-74
2023/01/24 09:13:39;;;;;;;;;;;3.10;99.90;;;;;;8417529;28;19971;-74
2023/01/24 09:17:41;;;;;;;;;;;3.10;99.90;;;;;;8406612;28;19924;-74
2023/01/24 09:21:44;;;;;;;;;;;3.10;99.90;;;;;;8401845;28;19979;-74
2023/01/24 09:25:50;;;;;;;;;;;3.20;99.90;;;;;;8404919;28;19929;-73
2023/01/24 09:29:52;;;;;;;;;;;3.10;99.90;;;;;;8401079;28;19924;-74
2023/01/24 09:33:54;;;;;;;;;;;3.10;99.90;;;;;;8399385;28;20051;-74
2023/01/24 09:38:00;;;;;;;;;;;3.00;99.90;;;;;;8406936;28;19928;-73
2023/01/24 09:42:11;;;;;;;;;;;3.00;99.90;;;;;;8391957;28;19931;-74
2023/01/24 09:46:33;;;;;;;;;;;3.00;99.90;;;;;;8379992;28;19935;-74
2023/01/24 09:50:35;;;;;;;;;;;3.10;99.90;;;;;;8409806;28;19984;-74
2023/01/24 09:54:46;;;;;;;;;;;3.10;99.90;;;;;;8388514;28;19931;-74
2023/01/24 09:58:52;;;;;;;;;;;3.10;99.90;;;;;;8419231;28;19931;-74
2023/01/24 10:02:55;;;;;;;;;;;3.10;99.90;;;;;;8404197;28;19924;-73
2023/01/24 10:07:05;;;;;;;;;;;3.20;99.90;;;;;;8407440;28;19932;-74
2023/01/24 10:11:14;;;;;;;;;;;3.20;99.90;;;;;;8371439;28;19975;-74
2023/01/24 10:25:42;;;;;;;;;;;3.20;99.90;;;;;;8387251;28;19920;-74
2023/01/24 10:29:45;;;;;;;;;;;3.30;99.90;;;;;;8363494;28;19931;-74
2023/01/24 10:33:48;;;;;;;;;;;3.30;99.90;;;;;;8381410;28;20004;-74
2023/01/24 10:37:55;;;;;;;;;;;3.20;99.90;;;;;;8382623;28;19924;-74
2023/01/24 10:41:57;;;;;;;;;;;3.30;99.90;;;;;;8376640;28;19987;-74
2023/01/24 10:46:17;;;;;;;;;;;3.30;99.90;;;;;;8375209;28;19982;-74
2023/01/24 10:50:19;;;;;;;;;;;3.20;99.90;;;;;;8384664;28;19932;-74
2023/01/24 10:54:22;;;;;;;;;;;3.20;99.90;;;;;;8386112;28;20367;-74
2023/01/24 10:58:30;;;;;;;;;;;3.30;99.90;;;;;;8389286;28;19932;-74
2023/01/24 11:02:36;;;;;;;;;;;3.30;99.90;;;;;;8379968;28;19924;-73
2023/01/24 11:06:38;;;;;;;;;;;3.40;99.90;;;;;;8377323;28;19931;-74
2023/01/24 11:10:41;;;;;;;;;;;3.40;99.90;;;;;;8380734;28;19935;-73
2023/01/24 11:14:47;;;;;;;;;;;3.40;99.90;;;;;;8387935;28;19962;-74
2023/01/24 11:18:54;;;;;;;;;;;3.40;99.90;;;;;;8387204;28;19932;-73
2023/01/24 11:23:14;;;;;;;;;;;3.40;99.90;;;;;;8395031;28;19967;-74
2023/01/24 11:27:18;;;;;;;;;;;3.40;99.90;;;;;;8386340;28;19986;-74
2023/01/24 11:31:26;;;;;;;;;;;3.50;99.90;;;;;;8378993;28;19929;-74
2023/01/24 11:35:36;;;;;;;;;;;3.50;99.90;;;;;;8404342;28;19924;-74
2023/01/24 11:39:44;;;;;;;;;;;3.60;99.90;;;;;;8397050;28;19930;-74
2023/01/24 11:43:49;;;;;;;;;;;3.50;99.90;;;;;;8403983;28;20023;-74
2023/01/24 11:47:51;;;;;;;;;;;3.50;99.90;;;;;;8414178;28;19928;-74
2023/01/24 11:52:07;;;;;;;;;;;3.60;99.90;;;;;;8402954;28;20007;-74
2023/01/24 11:56:09;;;;;;;;;;;3.60;99.90;;;;;;8416487;28;20034;-74
2023/01/24 12:00:22;;;;;;;;;;;3.70;99.90;;;;;;8408624;28;20451;-74
2023/01/24 12:04:23;;;;;;;;;;;3.70;99.90;;;;;;8395727;28;19932;-74
2023/01/24 12:08:40;;;;;;;;;;;3.70;99.90;;;;;;8387445;28;19930;-74
2023/01/24 12:12:49;;;;;;;;;;;3.70;99.90;;;;;;8418125;28;19932;-74
2023/01/24 12:17:17;;;;;;;;;;;3.70;99.90;;;;;;8416073;28;19928;-74
2023/01/24 12:21:25;;;;;;;;;;;3.70;99.90;;;;;;8419739;28;19924;-74
2023/01/24 12:25:32;;;;;;;;;;;3.70;99.90;;;;;;8416613;28;19924;-74
2023/01/24 12:29:38;;;;;;;;;;;3.70;99.90;;;;;;8397979;28;19931;-74
2023/01/24 12:33:46;;;;;;;;;;;3.80;99.90;;;;;;8414678;28;19947;-74
2023/01/24 12:37:47;;;;;;;;;;;3.80;99.90;;;;;;8396451;28;19924;-74
2023/01/24 12:42:00;;;;;;;;;;;3.90;99.90;;;;;;8424554;28;19924;-74
2023/01/24 12:46:21;;;;;;;;;;;3.90;99.90;;;;;;8386304;28;19925;-74
2023/01/24 12:50:29;;;;;;;;;;;3.90;99.90;;;;;;8427064;28;19970;-74
2023/01/24 12:54:34;;;;;;;;;;;3.80;99.90;;;;;;8391157;28;19966;-74
2023/01/24 12:58:37;;;;;;;;;;;3.80;99.90;;;;;;8408449;28;20372;-74
2023/01/24 13:02:49;;;;;;;;;;;3.80;99.90;;;;;;8402570;28;19935;-74
2023/01/24 13:07:03;;;;;;;;;;;3.80;99.90;;;;;;8396455;28;20317;-74
2023/01/24 13:11:17;;;;;;;;;;;3.90;99.90;;;;;;8392844;28;20362;-74
2023/01/24 13:15:21;;;;;;;;;;;3.90;99.90;;;;;;8388457;28;19936;-74
2023/01/24 13:19:22;;;;;;;;;;;3.90;99.90;;;;;;8389021;28;20340;-74
2023/01/24 13:23:24;;;;;;;;;;;3.90;99.90;;;;;;8379611;28;19947;-73
2023/01/24 13:27:26;;;;;;;;;;;3.90;99.90;;;;;;8383752;28;20225;-74
2023/01/24 13:31:29;;;;;;;;;;;3.90;99.90;;;;;;8376681;28;19925;-73
2023/01/24 13:35:31;;;;;;;;;;;3.80;99.90;;;;;;8355462;28;19928;-74
2023/01/24 13:39:39;;;;;;;;;;;3.80;99.90;;;;;;8395384;28;19928;-74
2023/01/24 13:44:00;;;;;;;;;;;3.80;99.90;;;;;;8414240;28;19924;-74
2023/01/24 13:48:03;;;;;;;;;;;3.80;99.90;;;;;;8398450;28;19959;-73
2023/01/24 13:52:23;;;;;;;;;;;3.80;99.90;;;;;;8423723;28;20603;-74
2023/01/24 13:56:24;;;;;;;;;;;3.80;99.90;;;;;;8418927;28;19950;-74
2023/01/24 14:00:27;;;;;;;;;;;3.80;99.90;;;;;;8402192;28;20391;-74
2023/01/24 14:04:40;;;;;;;;;;;3.80;99.90;;;;;;8387480;28;19939;-74
2023/01/24 14:08:47;;;;;;;;;;;3.70;99.90;;;;;;8414664;28;19924;-74
2023/01/24 14:12:54;;;;;;;;;;;3.70;99.90;;;;;;8420548;28;20206;-74
2023/01/24 14:16:57;;;;;;;;;;;3.70;99.90;;;;;;8394655;28;20867;-73
2023/01/24 14:21:00;;;;;;;;;;;3.70;99.90;;;;;;8400432;28;20286;-73
2023/01/24 14:25:22;;;;;;;;;;;3.70;99.90;;;;;;8395149;28;20023;-74
2023/01/24 14:29:44;;;;;;;;;;;3.70;99.90;;;;;;8332893;28;20466;-74
2023/01/24 14:33:52;;;;;;;;;;;3.70;99.90;;;;;;8348235;28;19928;-74
2023/01/24 14:38:09;;;;;;;;;;;3.60;99.90;;;;;;8365168;28;20818;-74
2023/01/24 14:42:15;;;;;;;;;;;3.60;99.90;;;;;;8353806;28;19925;-74
2023/01/24 14:46:21;;;;;;;;;;;3.50;99.90;;;;;;8369190;28;19929;-74
2023/01/24 14:50:27;;;;;;;;;;;3.50;99.90;;;;;;8378703;28;19932;-74
2023/01/24 14:54:29;;;;;;;;;;;3.50;99.90;;;;;;8374606;28;19932;-74
2023/01/24 14:58:30;;;;;;;;;;;3.50;99.90;;;;;;8382949;28;19955;-74
2023/01/24 15:02:33;;;;;;;;;;;3.50;99.90;;;;;;8364620;28;19950;-74
2023/01/24 15:11:39;;;;;;;;;;;3.50;99.90;;;;;;8345977;28;20028;-74
2023/01/24 15:15:41;;;;;;;;;;;3.40;99.90;;;;;;8332621;28;19933;-74
2023/01/24 15:19:42;;;;;;;;;;;3.40;99.90;;;;;;8336726;28;19926;-74
2023/01/24 15:23:47;;;;;;;;;;;3.30;99.90;;;;;;8327842;28;19925;-74
2023/01/24 15:27:49;;;;;;;;;;;3.30;99.90;;;;;;8348411;28;19932;-74
2023/01/24 15:31:51;;;;;;;;;;;3.30;99.90;;;;;;8341011;28;19925;-73
2023/01/24 15:35:53;;;;;;;;;;;3.20;99.90;;;;;;8333751;28;19931;-74
2023/01/24 15:39:56;;;;;;;;;;;3.20;99.90;;;;;;8337675;28;19929;-74
2023/01/24 15:44:07;;;;;;;;;;;3.20;99.90;;;;;;8313455;28;20377;-74
2023/01/24 15:48:19;;;;;;;;;;;3.10;99.90;;;;;;8339919;28;19929;-74
2023/01/24 15:52:21;;;;;;;;;;;3.10;99.90;;;;;;8321811;28;19956;-74
2023/01/24 15:56:23;;;;;;;;;;;3.10;99.90;;;;;;8310708;28;19932;-74
2023/01/24 16:00:28;;;;;;;;;;;3.00;99.90;;;;;;8334560;28;19925;-73
2023/01/24 16:04:32;;;;;;;;;;;3.00;99.90;;;;;;8332501;28;19936;-74
2023/01/24 16:08:34;;;;;;;;;;;3.00;99.90;;;;;;8316486;28;20365;-73
2023/01/24 16:12:36;;;;;;;;;;;3.10;99.90;;;;;;8365098;28;19935;-74
2023/01/24 16:16:37;;;;;;;;;;;3.00;99.90;;;;;;8363419;28;19925;-74
2023/01/24 16:20:39;;;;;;;;;;;3.10;99.90;;;;;;8370492;28;19924;-74
2023/01/24 16:24:41;;;;;;;;;;;3.10;99.90;;;;;;8361441;28;20049;-74
2023/01/24 16:28:43;;;;;;;;;;;3.00;99.90;;;;;;8381909;28;19935;-73
2023/01/24 16:32:44;;;;;;;;;;;3.10;99.90;;;;;;8361781;28;20379;-73
2023/01/24 16:36:46;;;;;;;;;;;3.10;99.90;;;;;;8362038;28;19931;-74
2023/01/24 16:40:48;;;;;;;;;;;3.10;99.90;;;;;;8365019;28;20283;-74
2023/01/24 16:44:54;;;;;;;;;;;3.10;99.90;;;;;;8364416;28;19960;-74
2023/01/24 16:48:56;;;;;;;;;;;3.10;99.90;;;;;;8365163;28;19960;-74
2023/01/24 16:52:58;;;;;;;;;;;3.00;99.90;;;;;;8365597;28;19925;-74
2023/01/24 16:57:00;;;;;;;;;;;3.00;99.90;;;;;;8367708;28;20692;-74
2023/01/24 17:01:08;;;;;;;;;;;3.00;99.90;;;;;;8362525;28;20377;-74
2023/01/24 17:05:10;;;;;;;;;;;3.10;99.90;;;;;;8362113;28;20051;-74
2023/01/24 17:09:12;;;;;;;;;;;3.00;99.90;;;;;;8363306;28;20334;-74
2023/01/24 17:13:14;;;;;;;;;;;3.00;99.90;;;;;;8362009;28;19972;-74
2023/01/24 17:17:15;;;;;;;;;;;3.00;99.90;;;;;;8361719;28;19967;-74
2023/01/24 17:21:17;;;;;;;;;;;3.00;99.90;;;;;;8362875;28;19929;-74
2023/01/24 17:25:19;;;;;;;;;;;3.10;99.90;;;;;;8360001;28;19977;-73
2023/01/24 17:29:27;;;;;;;;;;;3.00;99.90;;;;;;8362104;28;19932;-73
2023/01/24 17:33:28;;;;;;;;;;;3.00;99.90;;;;;;8356750;28;20023;-74
2023/01/24 17:37:31;;;;;;;;;;;2.90;99.90;;;;;;8377625;28;19929;-74
2023/01/24 17:41:32;;;;;;;;;;;2.90;99.90;;;;;;8358591;28;19939;-74
2023/01/24 17:45:34;;;;;;;;;;;2.80;99.90;;;;;;8363153;28;19978;-74
2023/01/24 17:49:36;;;;;;;;;;;2.80;99.90;;;;;;8375070;28;19932;-74
2023/01/24 17:53:39;;;;;;;;;;;2.80;99.90;;;;;;8360133;28;19937;-74
2023/01/24 17:57:40;;;;;;;;;;;2.80;99.90;;;;;;8345660;28;20023;-74
2023/01/24 18:01:42;;;;;;;;;;;2.80;99.90;;;;;;8344457;28;19972;-74
2023/01/24 18:05:44;;;;;;;;;;;2.80;99.90;;;;;;8365464;28;20398;-73
2023/01/24 18:09:45;;;;;;;;;;;2.80;99.90;;;;;;8362810;28;20344;-74
2023/01/24 18:13:47;;;;;;;;;;;2.80;99.90;;;;;;8353771;28;19972;-74
2023/01/24 18:17:49;;;;;;;;;;;2.70;99.90;;;;;;8362054;28;19964;-74
2023/01/24 18:21:50;;;;;;;;;;;2.70;99.90;;;;;;8344760;28;20395;-73
2023/01/24 18:25:52;;;;;;;;;;;2.70;99.90;;;;;;8367964;28;20269;-74
2023/01/24 18:29:53;;;;;;;;;;;2.70;99.90;;;;;;8367171;28;20365;-74
2023/01/24 18:33:58;;;;;;;;;;;2.70;99.90;;;;;;8390105;28;19925;-74
2023/01/24 18:38:00;;;;;;;;;;;2.70;99.90;;;;;;8374771;28;19925;-73
2023/01/24 18:42:05;;;;;;;;;;;2.70;99.90;;;;;;8370850;28;19928;-74
2023/01/24 18:46:08;;;;;;;;;;;2.70;99.90;;;;;;8367868;28;20020;-73
2023/01/24 18:50:10;;;;;;;;;;;2.60;99.90;;;;;;8390534;28;20225;-74
2023/01/24 18:54:12;;;;;;;;;;;2.60;99.90;;;;;;8367753;28;19924;-74
2023/01/24 18:58:14;;;;;;;;;;;2.60;99.90;;;;;;8371668;28;19968;-74
2023/01/24 19:02:15;;;;;;;;;;;2.60;99.90;;;;;;8369932;28;19928;-74
2023/01/24 19:06:28;;;;;;;;;;;2.60;99.90;;;;;;8370101;28;19936;-74
2023/01/24 19:10:30;;;;;;;;;;;2.60;99.90;;;;;;8373232;28;20367;-74
2023/01/24 19:14:31;;;;;;;;;;;2.60;99.90;;;;;;8362792;28;20028;-74
2023/01/24 19:18:34;;;;;;;;;;;2.60;99.90;;;;;;8357434;28;20012;-73
2023/01/24 19:22:35;;;;;;;;;;;2.60;99.90;;;;;;8358982;28;19935;-74
2023/01/24 19:26:37;;;;;;;;;;;2.50;99.90;;;;;;8348218;28;20402;-74
2023/01/24 19:30:39;;;;;;;;;;;2.50;99.90;;;;;;8353896;28;20280;-74
2023/01/24 19:34:41;;;;;;;;;;;2.50;99.90;;;;;;8354850;28;20343;-74
2023/01/24 19:38:48;;;;;;;;;;;2.50;99.90;;;;;;8384177;28;19982;-73
2023/01/24 19:42:49;;;;;;;;;;;2.50;99.90;;;;;;8362048;28;20364;-73
2023/01/24 19:46:51;;;;;;;;;;;2.50;99.90;;;;;;8365148;28;20597;-74
2023/01/24 19:50:53;;;;;;;;;;;2.50;99.90;;;;;;8352314;28;19972;-74
2023/01/24 19:54:54;;;;;;;;;;;2.50;99.90;;;;;;8367302;28;20446;-74
2023/01/24 19:58:56;;;;;;;;;;;2.50;99.90;;;;;;8360897;28;19943;-73
2023/01/24 20:02:58;;;;;;;;;;;2.60;99.90;;;;;;8365784;28;19931;-73
2023/01/24 20:06:59;;;;;;;;;;;2.60;99.90;;;;;;8364712;28;20023;-74
2023/01/24 20:11:06;;;;;;;;;;;2.60;99.90;;;;;;8362367;28;19925;-74
2023/01/24 20:15:08;;;;;;;;;;;2.60;99.90;;;;;;8368366;28;20414;-73
2023/01/24 20:19:10;;;;;;;;;;;2.60;99.90;;;;;;8385403;28;19931;-74
2023/01/24 20:23:27;;;;;;;;;;;2.60;99.90;;;;;;8374317;28;19994;-73
2023/01/24 20:27:29;;;;;;;;;;;2.60;99.90;;;;;;8383953;28;19925;-74
2023/01/24 20:31:31;;;;;;;;;;;2.60;99.90;;;;;;8366104;28;20023;-74
2023/01/24 20:35:33;;;;;;;;;;;2.70;99.90;;;;;;8346891;28;19928;-74
2023/01/24 20:39:34;;;;;;;;;;;2.60;99.90;;;;;;8352515;28;19928;-74
2023/01/24 20:43:36;;;;;;;;;;;2.60;99.90;;;;;;8366493;28;19925;-74
2023/01/24 20:47:38;;;;;;;;;;;2.60;99.90;;;;;;8381580;28;19959;-74
2023/01/24 20:51:40;;;;;;;;;;;2.60;99.90;;;;;;8364810;28;19928;-73
2023/01/24 20:55:41;;;;;;;;;;;2.60;99.90;;;;;;8373143;28;19937;-73
2023/01/24 20:59:43;;;;;;;;;;;2.60;99.90;;;;;;8374093;28;20384;-73
2023/01/24 21:03:45;;;;;;;;;;;2.60;99.90;;;;;;8364959;28;20418;-74
2023/01/24 21:07:47;;;;;;;;;;;2.50;99.90;;;;;;8379083;28;19929;-73
2023/01/24 21:11:50;;;;;;;;;;;2.50;99.90;;;;;;8365144;28;19971;-74
2023/01/24 21:15:51;;;;;;;;;;;2.50;99.90;;;;;;8375909;28;20376;-74
2023/01/24 21:19:53;;;;;;;;;;;2.50;99.90;;;;;;8367302;28;19940;-74
2023/01/24 21:23:55;;;;;;;;;;;2.50;99.90;;;;;;8363046;28;19925;-74
2023/01/24 21:27:57;;;;;;;;;;;2.50;99.90;;;;;;8350939;28;19931;-74
2023/01/24 21:31:59;;;;;;;;;;;2.40;99.90;;;;;;8349418;28;20296;-73
2023/01/24 21:36:06;;;;;;;;;;;2.50;99.90;;;;;;8359441;28;20392;-74
2023/01/24 21:40:09;;;;;;;;;;;2.40;99.90;;;;;;8387776;28;19964;-74
2023/01/24 21:44:10;;;;;;;;;;;2.50;99.90;;;;;;8360444;28;20391;-74
2023/01/24 21:48:12;;;;;;;;;;;2.50;99.90;;;;;;8344806;28;19924;-74
2023/01/24 21:52:14;;;;;;;;;;;2.50;99.90;;;;;;8349175;28;19936;-74
2023/01/24 22:00:36;;;;;;;;;;;2.40;99.90;;;;;;8365713;28;19924;-74
2023/01/24 22:04:38;;;;;;;;;;;2.40;99.90;;;;;;8390300;28;19982;-74
2023/01/24 22:08:40;;;;;;;;;;;2.40;99.90;;;;;;8395153;28;19933;-74
2023/01/24 22:12:42;;;;;;;;;;;2.40;99.90;;;;;;8399873;28;19932;-74
2023/01/24 22:16:45;;;;;;;;;;;2.40;99.90;;;;;;8385612;28;19936;-74
2023/01/24 22:20:50;;;;;;;;;;;2.40;99.90;;;;;;8402800;28;20277;-73
2023/01/24 22:24:58;;;;;;;;;;;2.40;99.90;;;;;;8387859;28;19935;-74
2023/01/24 22:28:59;;;;;;;;;;;2.40;99.90;;;;;;8402855;28;19939;-73
2023/01/24 22:33:01;;;;;;;;;;;2.40;99.90;;;;;;8385047;28;19965;-74
2023/01/24 22:37:21;;;;;;;;;;;2.40;99.90;;;;;;8400632;28;19924;-74
2023/01/24 22:41:23;;;;;;;;;;;2.40;99.90;;;;;;8398771;28;19970;-74
2023/01/24 22:45:25;;;;;;;;;;;2.40;99.90;;;;;;8389054;28;19928;-74
2023/01/24 22:49:27;;;;;;;;;;;2.40;99.90;;;;;;8391793;28;19978;-74
2023/01/24 22:53:28;;;;;;;;;;;2.30;99.90;;;;;;8413649;28;19931;-74
2023/01/24 22:57:30;;;;;;;;;;;2.30;99.90;;;;;;8369329;28;19933;-74
2023/01/24 23:01:32;;;;;;;;;;;2.30;99.90;;;;;;8398192;28;19943;-74
2023/01/24 23:05:33;;;;;;;;;;;2.30;99.90;;;;;;8360935;28;19933;-73
2023/01/24 23:09:35;;;;;;;;;;;2.30;99.90;;;;;;8379236;28;19979;-74
2023/01/24 23:18:00;;;;;;;;;;;2.20;99.90;;;;;;8405088;28;19932;-74
2023/01/24 23:22:02;;;;;;;;;;;2.20;99.90;;;;;;8409302;28;19932;-74
2023/01/24 23:26:03;;;;;;;;;;;2.10;99.90;;;;;;8396852;28;19940;-73
2023/01/24 23:30:24;;;;;;;;;;;2.20;99.90;;;;;;8384128;28;19939;-74
2023/01/24 23:34:31;;;;;;;;;;;2.10;99.90;;;;;;8379957;28;20379;-74
2023/01/24 23:38:33;;;;;;;;;;;2.10;99.90;;;;;;8401980;28;19931;-74
2023/01/24 23:42:34;;;;;;;;;;;2.10;99.90;;;;;;8402207;28;19953;-74
2023/01/24 23:46:36;;;;;;;;;;;2.10;99.90;;;;;;8396808;28;19947;-74
2023/01/24 23:50:38;;;;;;;;;;;2.10;99.90;;;;;;8406057;28;20019;-74
2023/01/24 23:54:39;;;;;;;;;;;2.10;99.90;;;;;;8408316;28;19931;-74
2023/01/24 23:58:41;;;;;;;;;;;2.10;99.90;;;;;;8411310;28;20001;-74
